CYFC

Fredericton Airport

ICAO Code CYFC
IATA Code YFC
Name Fredericton Airport
Location Fredericton, New Brunswick, CA
Elevation 68 Feet / 20.7 Meters
Latitude 45.86890030
Longitude -66.53720093
METAR CYFC 240700Z AUTO 30006KT 260V330 9SM OVC086 M08/M15 A2980 RMK ICE INTMT SLP093
Extra information Display Charts and CFS
Display NOTAMS
Runway Length Width Surface Elevation
09 8005 ft 200 ft ASP 64 ft
15 6000 ft 200 ft ASP 53 ft
27 8005 ft 200 ft ASP 57 ft
33 6000 ft 200 ft ASP 57 ft